Auburndale, FL

7:41 AM EST on January 31, 2015 (GMT -0500)
SW Auburndale, Jones Corner | Change Station
CLOSE
Current Station
Personal Weather Station
Location: Auburndale, FL
Elevation: 130 ft
Nearby Weather Stations

Elev 130 ft 28.03 °N, 81.82 °W | Updated 2 minutes ago

Clear
Clear
48.1 °F
Feels Like 48 °F
N
3.0
Wind Variable Wind from NE
Gusts 8.0 mph

Today
High -- | Low -- °F
--% Chance of Precip.
Yesterday
High -- | Low -- °F
Precip. -- in
7:15 AM 6:06 PM
Waxing Gibbous, 89% visible
Pressure 30.26 in
Visibility 10.0 miles
Clouds Clear
Windchill 48 °F
Dew Point 41 °F
Humidity 77%
Rainfall 0.00 in
Snow Depth Not available.
UV 0 out of 12
Pollen 9.70 out of 12
Air Quality Not available.
Flu Activity Not available.
METAR KGIF 311153Z AUTO 02006KT 10SM CLR 08/03 A3026 RMK AO2 SLP245 T00830033 10122 20078 53005

More Conditions Fewer Conditions

Pressure 30.26 in
Visibility 10.0 miles
Clouds Clear
Windchill 48 °F
Dew Point 41 °F
Humidity 77%
Rainfall 0.00 in
Snow Depth Not available.
UV 0 out of 12
Pollen 9.70 out of 12
Air Quality Not available.
Flu Activity Not available.
METAR KGIF 311153Z AUTO 02006KT 10SM CLR 08/03 A3026 RMK AO2 SLP245 T00830033 10122 20078 53005

More Conditions Fewer Conditions

10-Day Weather Forecast

Almanac

Astronomy

Jan. 31, 2015 Rise Set
Actual Time
Civil Twilight
Nautical Twilight
Astronomical Twilight
Moon
Length of Visible Light
Length of Day
Tomorrow will be .
, % of the Moon is Illuminated

Today's Extremes

State Highs State Lows

Community

WunderPhotos

Upload Photos

1,792,041 photos uploaded!

WunderBlogs® & News

Nearby

Air Quality

  Air Quality AQ Index Pollutant
Not available.

Snow Depth

Station Depth Elevation

Earthquake Activity

City Distance Mag. Time & Date
Minimum magnitude displayed is 2.5.

Coastal Water Temperatures

Place Temperature

Nearby Weather Stations